createdAt,value
2017-04-12T00:00:39.926Z,1013.23
2017-04-12T00:01:39.947Z,1013.23
2017-04-12T00:02:39.968Z,1013.2
2017-04-12T00:03:39.990Z,1013.18
2017-04-12T00:04:40.009Z,1013.16
2017-04-12T00:05:40.028Z,1013.16
2017-04-12T00:06:40.048Z,1013.14
2017-04-12T00:07:40.069Z,1013.06
2017-04-12T00:09:40.109Z,1013.08
2017-04-12T00:10:40.128Z,1013.09
2017-04-12T00:11:40.148Z,1013.11
2017-04-12T00:12:40.169Z,1013.05
2017-04-12T00:13:40.189Z,1013.03
2017-04-12T00:14:40.208Z,1012.98
2017-04-12T00:15:40.229Z,1012.99
2017-04-12T00:16:40.249Z,1012.95
2017-04-12T00:17:40.268Z,1012.92
2017-04-12T00:18:40.289Z,1012.88
2017-04-12T00:19:40.309Z,1012.87
2017-04-12T00:20:40.329Z,1012.84
2017-04-12T00:21:40.353Z,1012.82
2017-04-12T00:22:40.369Z,1012.82
2017-04-12T00:23:40.390Z,1012.8
2017-04-12T00:24:40.409Z,1012.77
2017-04-12T00:25:40.428Z,1012.7
2017-04-12T00:26:40.449Z,1012.72
2017-04-12T00:27:40.469Z,1012.74
2017-04-12T00:28:40.488Z,1012.7
2017-04-12T00:29:40.508Z,1012.68
2017-04-12T00:30:40.529Z,1012.69
2017-04-12T00:31:40.549Z,1012.65
2017-04-12T00:32:40.568Z,1012.68
2017-04-12T00:33:40.589Z,1012.63
2017-04-12T00:34:40.608Z,1012.62
2017-04-12T00:35:40.629Z,1012.62
2017-04-12T00:36:40.649Z,1012.56
2017-04-12T00:37:40.669Z,1012.56
2017-04-12T00:38:40.689Z,1012.58
2017-04-12T00:39:40.708Z,1012.59
2017-04-12T00:41:40.748Z,1012.49
2017-04-12T00:42:40.769Z,1012.53
2017-04-12T00:43:40.789Z,1012.53
2017-04-12T00:44:40.808Z,1012.5
2017-04-12T00:45:40.829Z,1012.43
2017-04-12T00:46:40.849Z,1012.46
2017-04-12T00:47:40.869Z,1012.38
2017-04-12T00:48:40.892Z,1012.36
2017-04-12T00:49:40.913Z,1012.34
2017-04-12T00:50:40.928Z,1012.31
2017-04-12T00:51:40.948Z,1012.26
2017-04-12T00:52:40.968Z,1012.34
2017-04-12T00:53:40.988Z,1012.24
2017-04-12T00:54:41.007Z,1012.26
2017-04-12T00:55:41.027Z,1012.25
2017-04-12T00:57:41.369Z,1012.25
2017-04-12T00:58:41.087Z,1012.16
2017-04-12T00:59:41.107Z,1012.17
2017-04-12T01:00:41.127Z,1012.14
2017-04-12T01:01:41.146Z,1012.16
2017-04-12T01:02:41.167Z,1012.1
2017-04-12T01:03:41.186Z,1012.13
2017-04-12T01:04:41.206Z,1012.04
2017-04-12T01:05:41.226Z,1012.02
2017-04-12T01:06:41.245Z,1012.09
2017-04-12T01:07:41.267Z,1012.07
2017-04-12T01:08:41.286Z,1012.05
2017-04-12T01:09:41.305Z,1012.04
2017-04-12T01:10:41.325Z,1012.09
2017-04-12T01:11:41.345Z,1012.03
2017-04-12T01:13:41.385Z,1012.06
2017-04-12T01:14:41.405Z,1012.03
2017-04-12T01:15:41.425Z,1012.02
2017-04-12T01:16:41.443Z,1012.01
2017-04-12T01:17:41.464Z,1012
2017-04-12T01:18:41.484Z,1012.02
2017-04-12T01:19:41.505Z,1011.97
2017-04-12T01:20:41.524Z,1011.95
2017-04-12T01:21:41.543Z,1012
2017-04-12T01:22:41.563Z,1011.97
2017-04-12T01:23:41.583Z,1011.96
2017-04-12T01:24:41.603Z,1011.96
2017-04-12T01:25:41.623Z,1011.98
2017-04-12T01:26:41.643Z,1011.94
2017-04-12T01:27:41.662Z,1011.9
2017-04-12T01:29:41.703Z,1011.93
2017-04-12T01:30:41.722Z,1011.88
2017-04-12T01:31:41.741Z,1011.91
2017-04-12T01:32:41.762Z,1011.94
2017-04-12T01:33:41.782Z,1011.9
2017-04-12T01:34:41.800Z,1011.84
2017-04-12T01:35:41.820Z,1011.8
2017-04-12T01:36:41.841Z,1011.82
2017-04-12T01:37:41.861Z,1011.83
2017-04-12T01:38:41.883Z,1011.82
2017-04-12T01:39:41.900Z,1011.83
2017-04-12T01:40:41.919Z,1011.83
2017-04-12T01:41:41.944Z,1011.8
2017-04-12T01:42:41.960Z,1011.77
2017-04-12T01:44:42.000Z,1011.72
2017-04-12T01:45:42.018Z,1011.75
2017-04-12T01:46:42.039Z,1011.72
2017-04-12T01:47:42.059Z,1011.77
2017-04-12T01:48:42.079Z,1011.66
2017-04-12T01:49:42.097Z,1011.7
2017-04-12T01:50:42.118Z,1011.65
2017-04-12T01:51:42.138Z,1011.64
2017-04-12T01:52:42.157Z,1011.62
2017-04-12T01:53:42.177Z,1011.67
2017-04-12T01:54:42.198Z,1011.54
2017-04-12T01:55:42.218Z,1011.51
2017-04-12T01:56:42.237Z,1011.45
2017-04-12T01:57:42.257Z,1011.41
2017-04-12T01:58:42.277Z,1011.44
2017-04-12T01:59:42.297Z,1011.46
2017-04-12T02:00:42.317Z,1011.4
2017-04-12T02:01:42.336Z,1011.4
2017-04-12T02:02:42.355Z,1011.42
2017-04-12T02:03:42.376Z,1011.43
2017-04-12T02:04:42.396Z,1011.36
2017-04-12T02:05:42.415Z,1011.37
2017-04-12T02:06:42.436Z,1011.35
2017-04-12T02:07:42.455Z,1011.27
2017-04-12T02:08:42.475Z,1011.22
2017-04-12T02:09:42.495Z,1011.23
2017-04-12T02:10:42.515Z,1011.24
2017-04-12T02:11:42.534Z,1011.21
2017-04-12T02:12:42.554Z,1011.25
2017-04-12T02:13:42.574Z,1011.2
2017-04-12T02:14:42.593Z,1011.2
2017-04-12T02:16:42.634Z,1011.15
2017-04-12T02:17:42.654Z,1011.11
2017-04-12T02:18:42.713Z,1011.1
2017-04-12T02:19:42.693Z,1011.08
2017-04-12T02:20:42.714Z,1011.1
2017-04-12T02:21:42.734Z,1011.09
2017-04-12T02:22:42.752Z,1011.05
2017-04-12T02:23:42.773Z,1010.97
2017-04-12T02:24:42.793Z,1010.97
2017-04-12T02:25:42.812Z,1010.95
2017-04-12T02:26:42.832Z,1010.9
2017-04-12T02:27:42.852Z,1010.96
2017-04-12T02:28:42.873Z,1010.92
2017-04-12T02:29:42.892Z,1010.93
2017-04-12T02:30:42.912Z,1010.93
2017-04-12T02:32:42.952Z,1010.89
2017-04-12T02:33:42.971Z,1010.89
2017-04-12T02:34:42.992Z,1010.84
2017-04-12T02:35:43.012Z,1010.82
2017-04-12T02:36:43.031Z,1010.79
2017-04-12T02:37:43.051Z,1010.81
2017-04-12T02:38:43.072Z,1010.79
2017-04-12T02:39:43.092Z,1010.8
2017-04-12T02:40:43.111Z,1010.76
2017-04-12T02:41:43.131Z,1010.8
2017-04-12T02:42:43.151Z,1010.81
2017-04-12T02:43:43.172Z,1010.8
2017-04-12T02:44:43.190Z,1010.75
2017-04-12T02:45:43.211Z,1010.8
2017-04-12T02:46:43.231Z,1010.75
2017-04-12T02:48:43.271Z,1010.75
2017-04-12T02:49:43.290Z,1010.72
2017-04-12T02:50:43.313Z,1010.7
2017-04-12T02:51:43.329Z,1010.72
2017-04-12T02:52:43.349Z,1010.68
2017-04-12T02:53:43.370Z,1010.68
2017-04-12T02:54:43.390Z,1010.63
2017-04-12T02:55:43.409Z,1010.64
2017-04-12T02:56:43.430Z,1010.58
2017-04-12T02:57:43.449Z,1010.54
2017-04-12T02:58:43.469Z,1010.59
2017-04-12T02:59:43.489Z,1010.56
2017-04-12T03:00:43.509Z,1010.56
2017-04-12T03:01:43.529Z,1010.51
2017-04-12T03:02:43.548Z,1010.52
2017-04-12T03:04:43.589Z,1010.45
2017-04-12T03:05:43.609Z,1010.48
2017-04-12T03:06:43.628Z,1010.44
2017-04-12T03:07:43.649Z,1010.43
2017-04-12T03:08:43.674Z,1010.44
2017-04-12T03:09:43.688Z,1010.47
2017-04-12T03:10:43.708Z,1010.46
2017-04-12T03:11:43.728Z,1010.45
2017-04-12T03:12:43.749Z,1010.43
2017-04-12T03:13:43.768Z,1010.45
2017-04-12T03:14:43.788Z,1010.41
2017-04-12T03:15:43.808Z,1010.43
2017-04-12T03:16:43.829Z,1010.41
2017-04-12T03:17:43.849Z,1010.44
2017-04-12T03:19:43.889Z,1010.43
2017-04-12T03:20:43.909Z,1010.36
2017-04-12T03:21:43.928Z,1010.42
2017-04-12T03:22:43.949Z,1010.35
2017-04-12T03:23:43.969Z,1010.39
2017-04-12T03:24:43.988Z,1010.35
2017-04-12T03:25:44.008Z,1010.38
2017-04-12T03:26:44.028Z,1010.37
2017-04-12T03:27:44.049Z,1010.38
2017-04-12T03:28:44.068Z,1010.37
2017-04-12T03:29:44.088Z,1010.34
2017-04-12T03:30:44.109Z,1010.33
2017-04-12T03:31:44.127Z,1010.29
2017-04-12T03:32:44.147Z,1010.25
2017-04-12T03:33:44.167Z,1010.22
2017-04-12T03:34:44.188Z,1010.26
2017-04-12T03:35:44.207Z,1010.17
2017-04-12T03:36:44.226Z,1010.21
2017-04-12T03:37:44.247Z,1010.25
2017-04-12T03:38:44.266Z,1010.22
2017-04-12T03:39:44.287Z,1010.21
2017-04-12T03:40:44.307Z,1010.16
2017-04-12T03:41:44.327Z,1010.17
2017-04-12T03:42:44.347Z,1010.2
2017-04-12T03:43:44.367Z,1010.11
2017-04-12T03:44:44.386Z,1010.15
2017-04-12T03:45:44.406Z,1010.18
2017-04-12T03:46:44.426Z,1010.12
2017-04-12T03:47:44.446Z,1010.13
2017-04-12T03:48:44.467Z,1010.13
2017-04-12T03:49:44.485Z,1010.17
2017-04-12T03:51:44.526Z,1010.18
2017-04-12T03:52:44.546Z,1010.14
2017-04-12T03:53:44.565Z,1010.18
2017-04-12T03:54:44.586Z,1010.13
2017-04-12T03:55:44.606Z,1010.14
2017-04-12T03:56:44.626Z,1010.1
2017-04-12T03:57:44.645Z,1010.11
2017-04-12T03:58:44.665Z,1010.14
2017-04-12T03:59:44.686Z,1010.11
2017-04-12T04:00:44.704Z,1010.1
2017-04-12T04:01:44.724Z,1010
2017-04-12T04:02:44.744Z,1010.03
2017-04-12T04:03:44.765Z,1010.11
2017-04-12T04:04:44.784Z,1010.02
2017-04-12T04:05:44.804Z,1010.01
2017-04-12T04:07:44.851Z,1010.01
2017-04-12T04:08:44.864Z,1010.02
2017-04-12T04:09:44.884Z,1010.05
2017-04-12T04:10:44.904Z,1010.03
2017-04-12T04:11:44.923Z,1009.96
2017-04-12T04:12:44.943Z,1009.99
2017-04-12T04:13:44.963Z,1009.95
2017-04-12T04:14:44.983Z,1010.03
2017-04-12T04:15:45.002Z,1009.96
2017-04-12T04:16:45.023Z,1009.91
2017-04-12T04:17:45.043Z,1009.95
2017-04-12T04:18:45.063Z,1009.96
2017-04-12T04:19:45.082Z,1009.95
2017-04-12T04:20:45.103Z,1009.9
2017-04-12T04:21:45.123Z,1009.9
2017-04-12T04:23:45.163Z,1009.86
2017-04-12T04:24:45.183Z,1009.87
2017-04-12T04:25:45.202Z,1009.87
2017-04-12T04:26:45.221Z,1009.92
2017-04-12T04:27:45.242Z,1009.86
2017-04-12T04:28:45.262Z,1009.87
2017-04-12T04:29:45.283Z,1009.85
2017-04-12T04:30:45.301Z,1009.81
2017-04-12T04:31:45.322Z,1009.83
2017-04-12T04:32:45.341Z,1009.82
2017-04-12T04:33:45.361Z,1009.83
2017-04-12T04:34:45.381Z,1009.77
2017-04-12T04:35:45.401Z,1009.77
2017-04-12T04:36:45.421Z,1009.78
2017-04-12T04:37:45.440Z,1009.8
2017-04-12T04:39:45.481Z,1009.75
2017-04-12T04:40:45.501Z,1009.77
2017-04-12T04:41:45.521Z,1009.74
2017-04-12T04:42:45.541Z,1009.8
2017-04-12T04:43:45.561Z,1009.73
2017-04-12T04:44:45.580Z,1009.71
2017-04-12T04:45:45.600Z,1009.73
2017-04-12T04:46:45.620Z,1009.7
2017-04-12T04:47:45.641Z,1009.71
2017-04-12T04:48:45.663Z,1009.7
2017-04-12T04:49:45.680Z,1009.7
2017-04-12T04:50:45.700Z,1009.72
2017-04-12T04:51:45.720Z,1009.69
2017-04-12T04:52:45.747Z,1009.7
2017-04-12T04:54:45.781Z,1009.67
2017-04-12T04:55:45.800Z,1009.73
2017-04-12T04:56:45.820Z,1009.73
2017-04-12T04:57:45.841Z,1009.71
2017-04-12T04:58:45.862Z,1009.75
2017-04-12T04:59:45.881Z,1009.67
2017-04-12T05:00:45.900Z,1009.68
2017-04-12T05:01:45.921Z,1009.7
2017-04-12T05:02:45.941Z,1009.67
2017-04-12T05:03:45.961Z,1009.66
2017-04-12T05:04:45.981Z,1009.63
2017-04-12T05:05:46.001Z,1009.65
2017-04-12T05:06:46.021Z,1009.61
2017-04-12T05:07:46.040Z,1009.63
2017-04-12T05:08:46.061Z,1009.62
2017-04-12T05:09:46.081Z,1009.59
2017-04-12T05:10:46.100Z,1009.6
2017-04-12T05:11:46.120Z,1009.59
2017-04-12T05:12:46.141Z,1009.59
2017-04-12T05:13:46.160Z,1009.52
2017-04-12T05:14:46.180Z,1009.59
2017-04-12T05:15:46.200Z,1009.5
2017-04-12T05:16:46.221Z,1009.53
2017-04-12T05:17:46.240Z,1009.48
2017-04-12T05:18:46.260Z,1009.5
2017-04-12T05:19:46.280Z,1009.5
2017-04-12T05:20:46.300Z,1009.51
2017-04-12T05:21:46.320Z,1009.48
2017-04-12T05:22:46.343Z,1009.47
2017-04-12T05:23:46.361Z,1009.47
2017-04-12T05:24:46.380Z,1009.45
2017-04-12T05:26:46.420Z,1009.47
2017-04-12T05:27:46.441Z,1009.58
2017-04-12T05:28:46.461Z,1009.56
2017-04-12T05:29:46.480Z,1009.52
2017-04-12T05:30:46.502Z,1009.52
2017-04-12T05:31:46.523Z,1009.46
2017-04-12T05:32:46.540Z,1009.49
2017-04-12T05:33:46.560Z,1009.49
2017-04-12T05:34:46.581Z,1009.44
2017-04-12T05:35:46.600Z,1009.47
2017-04-12T05:36:46.620Z,1009.48
2017-04-12T05:37:46.641Z,1009.46
2017-04-12T05:38:46.661Z,1009.45
2017-04-12T05:39:46.680Z,1009.44
2017-04-12T05:40:46.701Z,1009.4
2017-04-12T05:42:46.741Z,1009.38
2017-04-12T05:43:46.760Z,1009.47
2017-04-12T05:44:46.781Z,1009.42
2017-04-12T05:45:46.800Z,1009.36
2017-04-12T05:46:46.821Z,1009.35
2017-04-12T05:47:46.841Z,1009.41
2017-04-12T05:48:46.861Z,1009.35
2017-04-12T05:49:46.881Z,1009.36
2017-04-12T05:50:46.900Z,1009.36
2017-04-12T05:51:46.920Z,1009.4
2017-04-12T05:52:46.941Z,1009.36
2017-04-12T05:53:46.961Z,1009.37
2017-04-12T05:54:46.979Z,1009.35
2017-04-12T05:55:47.000Z,1009.35
2017-04-12T05:56:47.021Z,1009.42
2017-04-12T05:58:47.060Z,1009.38
2017-04-12T05:59:47.081Z,1009.38
2017-04-12T06:00:47.101Z,1009.33
2017-04-12T06:01:47.120Z,1009.32
2017-04-12T06:02:47.140Z,1009.32
2017-04-12T06:03:47.161Z,1009.38
2017-04-12T06:04:47.182Z,1009.33
2017-04-12T06:05:47.200Z,1009.33
2017-04-12T06:06:47.257Z,1009.3
2017-04-12T06:07:47.242Z,1009.39
2017-04-12T06:08:47.260Z,1009.35
2017-04-12T06:09:47.281Z,1009.31
2017-04-12T06:10:47.302Z,1009.25
2017-04-12T06:11:47.322Z,1009.29
2017-04-12T06:12:47.341Z,1009.25
2017-04-12T06:14:47.382Z,1009.24
2017-04-12T06:15:47.402Z,1009.18
2017-04-12T06:16:47.421Z,1009.22
2017-04-12T06:17:47.442Z,1009.22
2017-04-12T06:18:47.462Z,1009.21
2017-04-12T06:19:47.481Z,1009.22
2017-04-12T06:20:47.502Z,1009.23
2017-04-12T06:21:47.523Z,1009.22
2017-04-12T06:22:47.543Z,1009.2
2017-04-12T06:23:47.566Z,1009.17
2017-04-12T06:24:47.583Z,1009.17
2017-04-12T06:25:47.606Z,1009.14
2017-04-12T06:26:47.624Z,1009.1
2017-04-12T06:27:47.644Z,1009.08
2017-04-12T06:29:47.685Z,1009.09
2017-04-12T06:30:47.705Z,1009.09
2017-04-12T06:31:47.725Z,1009.12
2017-04-12T06:32:47.746Z,1009.1
2017-04-12T06:33:47.766Z,1009.07
2017-04-12T06:34:47.786Z,1009.04
2017-04-12T06:35:47.806Z,1009.02
2017-04-12T06:36:47.826Z,1009.05
2017-04-12T06:37:47.846Z,1009.01
2017-04-12T06:38:47.866Z,1008.99
2017-04-12T06:39:47.887Z,1008.99
2017-04-12T06:40:47.908Z,1008.94
2017-04-12T06:41:47.927Z,1008.92
2017-04-12T06:42:47.948Z,1008.92
2017-04-12T06:43:47.969Z,1008.9
2017-04-12T06:44:47.989Z,1008.88
2017-04-12T06:45:48.008Z,1008.86
2017-04-12T06:46:48.030Z,1008.89
2017-04-12T06:47:48.051Z,1008.88
2017-04-12T06:48:48.070Z,1008.89
2017-04-12T06:49:48.090Z,1008.81
2017-04-12T06:50:48.111Z,1008.76
2017-04-12T06:51:48.132Z,1008.91
2017-04-12T06:52:48.152Z,1008.9
2017-04-12T06:53:48.173Z,1008.88
2017-04-12T06:54:48.194Z,1008.85
2017-04-12T06:55:48.215Z,1008.8
2017-04-12T06:56:48.235Z,1008.8
2017-04-12T06:57:48.256Z,1008.74
2017-04-12T06:58:48.277Z,1008.73
2017-04-12T06:59:48.297Z,1008.72
2017-04-12T07:01:48.340Z,1008.75
2017-04-12T07:02:48.363Z,1008.76
2017-04-12T07:03:48.382Z,1008.8
2017-04-12T07:04:48.403Z,1008.73
2017-04-12T07:05:48.425Z,1008.69
2017-04-12T07:06:48.446Z,1008.73
2017-04-12T07:07:48.466Z,1008.7
2017-04-12T07:08:48.530Z,1008.68
2017-04-12T07:09:48.510Z,1008.81
2017-04-12T07:10:48.530Z,1008.69
2017-04-12T07:11:48.551Z,1008.7
2017-04-12T07:12:48.573Z,1008.6
2017-04-12T07:13:48.595Z,1008.52
2017-04-12T07:14:48.616Z,1008.47
2017-04-12T07:15:48.637Z,1008.35
2017-04-12T07:17:48.681Z,1008.2
2017-04-12T07:18:48.702Z,1008.19
2017-04-12T07:19:48.725Z,1008.3
2017-04-12T07:20:48.746Z,1008.35
2017-04-12T07:21:48.767Z,1008.4
2017-04-12T07:22:48.789Z,1008.46
2017-04-12T07:23:48.811Z,1008.5
2017-04-12T07:24:48.833Z,1008.54
2017-04-12T07:25:48.855Z,1008.48
2017-04-12T07:26:48.876Z,1008.47
2017-04-12T07:27:48.898Z,1008.45
2017-04-12T07:28:48.920Z,1008.4
2017-04-12T07:29:48.942Z,1008.43
2017-04-12T07:30:48.964Z,1008.47
2017-04-12T07:31:48.986Z,1008.46
2017-04-12T07:33:49.030Z,1008.39
2017-04-12T07:34:49.051Z,1008.43
2017-04-12T07:35:49.073Z,1008.36
2017-04-12T07:36:49.094Z,1008.34
2017-04-12T07:37:49.117Z,1008.33
2017-04-12T07:38:49.141Z,1008.28
2017-04-12T07:39:49.161Z,1008.21
2017-04-12T07:40:49.183Z,1008.28
2017-04-12T07:41:49.204Z,1008.29
2017-04-12T07:42:49.226Z,1008.26
2017-04-12T07:43:49.249Z,1008.29
2017-04-12T07:44:49.270Z,1008.3
2017-04-12T07:45:49.292Z,1008.23
2017-04-12T07:46:49.314Z,1008.27
2017-04-12T07:47:49.335Z,1008.23
2017-04-12T07:49:49.582Z,1008.22
2017-04-12T07:50:49.402Z,1008.22
2017-04-12T07:51:49.423Z,1008.14
2017-04-12T07:52:49.446Z,1008.15
2017-04-12T07:53:49.467Z,1008.19
2017-04-12T07:54:49.490Z,1008.15
2017-04-12T07:55:49.512Z,1008.11
2017-04-12T07:56:49.535Z,1008.13
2017-04-12T07:57:49.557Z,1008.12
2017-04-12T07:58:49.579Z,1008.12
2017-04-12T07:59:49.602Z,1008.11
2017-04-12T08:00:49.624Z,1008.13
2017-04-12T08:01:49.647Z,1008.19
2017-04-12T08:02:49.670Z,1008.07
2017-04-12T08:04:49.714Z,1008.01
2017-04-12T08:05:49.736Z,1008.03
2017-04-12T08:06:49.758Z,1008.05
2017-04-12T08:07:49.782Z,1008.09
2017-04-12T08:08:49.804Z,1008.09
2017-04-12T08:09:49.826Z,1008.15
2017-04-12T08:10:49.849Z,1008.07
2017-04-12T08:11:49.871Z,1008.03
2017-04-12T08:12:49.892Z,1007.98
2017-04-12T08:13:49.915Z,1008
2017-04-12T08:14:49.938Z,1007.99
2017-04-12T08:15:49.960Z,1007.99
2017-04-12T08:16:49.982Z,1008.03
2017-04-12T08:17:50.004Z,1007.99
2017-04-12T08:18:50.027Z,1007.99
2017-04-12T08:19:50.050Z,1007.97
2017-04-12T08:20:50.072Z,1007.97
2017-04-12T08:21:50.097Z,1007.99
2017-04-12T08:22:50.116Z,1008
2017-04-12T08:23:50.139Z,1007.99
2017-04-12T08:24:50.162Z,1007.99
2017-04-12T08:25:50.184Z,1008.08
2017-04-12T08:26:50.207Z,1007.94
2017-04-12T08:27:50.228Z,1007.95
2017-04-12T08:28:50.251Z,1007.86
2017-04-12T08:29:50.274Z,1007.9
2017-04-12T08:30:50.296Z,1007.96
2017-04-12T08:31:50.319Z,1007.92
2017-04-12T08:32:50.341Z,1007.86
2017-04-12T08:33:50.365Z,1007.81
2017-04-12T08:34:50.385Z,1007.84
2017-04-12T08:36:50.431Z,1007.82
2017-04-12T08:37:50.455Z,1007.81
2017-04-12T08:38:50.510Z,1007.83
2017-04-12T08:39:50.540Z,1007.76
2017-04-12T08:40:50.523Z,1007.79
2017-04-12T08:41:50.546Z,1007.82
2017-04-12T08:42:50.568Z,1007.74
2017-04-12T08:43:50.590Z,1007.78
2017-04-12T08:44:50.614Z,1007.73
2017-04-12T08:45:50.637Z,1007.71
2017-04-12T08:46:50.661Z,1007.72
2017-04-12T08:47:50.684Z,1007.71
2017-04-12T08:48:50.707Z,1007.71
2017-04-12T08:49:50.730Z,1007.68
2017-04-12T08:50:50.753Z,1007.7
2017-04-12T08:52:50.800Z,1007.69
2017-04-12T08:53:50.822Z,1007.73
2017-04-12T08:54:50.846Z,1007.7
2017-04-12T08:55:50.870Z,1007.71
2017-04-12T08:56:50.892Z,1007.63
2017-04-12T08:57:50.915Z,1007.62
2017-04-12T08:58:50.938Z,1007.63
2017-04-12T08:59:50.961Z,1007.6
2017-04-12T09:00:50.984Z,1007.52
2017-04-12T09:01:51.007Z,1007.47
2017-04-12T09:02:51.031Z,1007.46
2017-04-12T09:03:51.054Z,1007.47
2017-04-12T09:04:51.077Z,1007.46
2017-04-12T09:05:51.100Z,1007.44
2017-04-12T09:06:51.123Z,1007.42
2017-04-12T09:08:51.168Z,1007.41
2017-04-12T09:09:51.192Z,1007.43
2017-04-12T09:10:51.215Z,1007.42
2017-04-12T09:11:51.237Z,1007.46
2017-04-12T09:12:51.260Z,1007.39
2017-04-12T09:13:51.286Z,1007.38
2017-04-12T09:14:51.307Z,1007.4
2017-04-12T09:15:51.330Z,1007.38
2017-04-12T09:16:51.353Z,1007.4
2017-04-12T09:17:51.377Z,1007.37
2017-04-12T09:18:51.399Z,1007.33
2017-04-12T09:19:51.422Z,1007.3
2017-04-12T09:20:51.445Z,1007.35
2017-04-12T09:21:51.469Z,1007.37
2017-04-12T09:22:51.490Z,1007.26
2017-04-12T09:24:51.537Z,1007.23
2017-04-12T09:25:51.560Z,1007.28
2017-04-12T09:26:51.582Z,1007.29
2017-04-12T09:27:51.604Z,1007.3
2017-04-12T09:28:51.628Z,1007.25
2017-04-12T09:29:51.653Z,1007.29
2017-04-12T09:30:51.673Z,1007.3
2017-04-12T09:31:51.696Z,1007.21
2017-04-12T09:32:51.721Z,1007.18
2017-04-12T09:33:51.745Z,1007.31
2017-04-12T09:34:51.764Z,1007.24
2017-04-12T09:35:51.787Z,1007.2
2017-04-12T09:36:51.810Z,1007.2
2017-04-12T09:37:51.833Z,1007.16
2017-04-12T09:39:51.878Z,1007.02
2017-04-12T09:40:51.901Z,1007.09
2017-04-12T09:41:51.923Z,1007.04
2017-04-12T09:42:51.946Z,1007.02
2017-04-12T09:43:51.969Z,1007.07
2017-04-12T09:44:51.991Z,1007.04
2017-04-12T09:45:52.015Z,1007.02
2017-04-12T09:46:52.038Z,1007.11
2017-04-12T09:47:52.059Z,1007.04
2017-04-12T09:48:52.083Z,1007.06
2017-04-12T09:49:52.106Z,1006.93
2017-04-12T09:50:52.130Z,1006.97
2017-04-12T09:51:52.151Z,1006.99
2017-04-12T09:52:52.175Z,1006.95
2017-04-12T09:53:52.197Z,1006.95
2017-04-12T09:54:52.220Z,1006.87
2017-04-12T09:55:52.242Z,1006.9
2017-04-12T09:56:52.266Z,1006.98
2017-04-12T09:57:52.289Z,1006.96
2017-04-12T09:58:52.311Z,1006.85
2017-04-12T09:59:52.334Z,1006.87
2017-04-12T10:00:52.357Z,1006.87
2017-04-12T10:01:52.382Z,1006.88
2017-04-12T10:02:52.403Z,1006.82
2017-04-12T10:03:52.426Z,1006.78
2017-04-12T10:04:52.449Z,1006.75
2017-04-12T10:05:52.472Z,1006.77
2017-04-12T10:06:52.494Z,1006.88
2017-04-12T10:07:52.517Z,1006.83
2017-04-12T10:08:52.541Z,1006.86
2017-04-12T10:09:52.562Z,1006.82
2017-04-12T10:11:52.609Z,1006.86
2017-04-12T10:12:52.632Z,1006.72
2017-04-12T10:13:52.654Z,1006.62
2017-04-12T10:14:52.678Z,1006.72
2017-04-12T10:15:52.700Z,1006.64
2017-04-12T10:16:52.724Z,1006.69
2017-04-12T10:17:52.746Z,1006.73
2017-04-12T10:18:52.770Z,1006.7
2017-04-12T10:19:52.791Z,1006.61
2017-04-12T10:20:52.814Z,1006.69
2017-04-12T10:21:52.838Z,1006.65
2017-04-12T10:22:52.860Z,1006.62
2017-04-12T10:23:52.883Z,1006.58
2017-04-12T10:24:52.906Z,1006.57
2017-04-12T10:25:52.928Z,1006.61
2017-04-12T10:27:52.973Z,1006.64
2017-04-12T10:28:52.995Z,1006.64
2017-04-12T10:29:53.019Z,1006.59
2017-04-12T10:30:53.043Z,1006.65
2017-04-12T10:31:53.064Z,1006.69
2017-04-12T10:32:53.092Z,1006.7
2017-04-12T10:33:53.110Z,1006.63
2017-04-12T10:34:53.134Z,1006.62
2017-04-12T10:35:53.156Z,1006.71
2017-04-12T10:36:53.178Z,1006.62
2017-04-12T10:37:53.201Z,1006.57
2017-04-12T10:38:53.224Z,1006.58
2017-04-12T10:39:53.247Z,1006.56
2017-04-12T10:40:53.269Z,1006.5
2017-04-12T10:41:53.294Z,1006.58
2017-04-12T10:43:53.339Z,1006.33
2017-04-12T10:44:53.361Z,1006.55
2017-04-12T10:45:53.398Z,1006.38
2017-04-12T10:46:53.407Z,1006.43
2017-04-12T10:47:53.430Z,1006.56
2017-04-12T10:48:53.453Z,1006.39
2017-04-12T10:49:53.476Z,1006.42
2017-04-12T10:50:53.499Z,1006.35
2017-04-12T10:51:53.521Z,1006.38
2017-04-12T10:52:53.545Z,1006.29
2017-04-12T10:53:53.569Z,1006.33
2017-04-12T10:54:53.590Z,1006.37
2017-04-12T10:55:53.614Z,1006.26
2017-04-12T10:56:53.637Z,1006.3
2017-04-12T10:57:53.658Z,1006.22
2017-04-12T10:59:53.706Z,1006.23
2017-04-12T11:00:53.729Z,1006.25
2017-04-12T11:01:53.751Z,1006.23
2017-04-12T11:02:53.775Z,1006.24
2017-04-12T11:03:53.803Z,1006.24
2017-04-12T11:04:53.821Z,1006.18
2017-04-12T11:05:53.844Z,1006.23
2017-04-12T11:06:53.869Z,1006.07
2017-04-12T11:07:53.891Z,1006.14
2017-04-12T11:08:53.914Z,1006.05
2017-04-12T11:09:53.937Z,1006.07
2017-04-12T11:10:53.960Z,1006
2017-04-12T11:11:53.984Z,1006.04
2017-04-12T11:12:54.046Z,1005.99
2017-04-12T11:14:54.054Z,1006
2017-04-12T11:15:54.077Z,1005.96
2017-04-12T11:16:54.101Z,1005.99
2017-04-12T11:17:54.124Z,1005.89
2017-04-12T11:18:54.148Z,1005.85
2017-04-12T11:19:54.173Z,1005.86
2017-04-12T11:20:54.193Z,1005.77
2017-04-12T11:21:54.217Z,1005.89
2017-04-12T11:22:54.240Z,1005.92
2017-04-12T11:23:54.263Z,1005.77
2017-04-12T11:24:54.287Z,1005.85
2017-04-12T11:25:54.310Z,1005.89
2017-04-12T11:26:54.334Z,1005.81
2017-04-12T11:27:54.357Z,1005.82
2017-04-12T11:28:54.381Z,1005.82
2017-04-12T11:29:54.404Z,1005.77
2017-04-12T11:30:54.428Z,1005.72
2017-04-12T11:31:54.452Z,1005.72
2017-04-12T11:32:54.476Z,1005.73
2017-04-12T11:33:54.498Z,1005.78
2017-04-12T11:34:54.523Z,1005.8
2017-04-12T11:35:54.546Z,1005.68
2017-04-12T11:36:54.571Z,1005.66
2017-04-12T11:37:54.594Z,1005.71
2017-04-12T11:38:54.617Z,1005.73
2017-04-12T11:39:54.642Z,1005.73
2017-04-12T11:40:54.666Z,1005.49
2017-04-12T11:41:54.689Z,1005.66
2017-04-12T11:42:54.713Z,1005.63
2017-04-12T11:43:54.738Z,1005.6
2017-04-12T11:44:54.760Z,1005.54
2017-04-12T11:46:54.808Z,1005.52
2017-04-12T11:47:54.832Z,1005.49
2017-04-12T11:48:54.855Z,1005.48
2017-04-12T11:49:54.879Z,1005.52
2017-04-12T11:50:54.904Z,1005.54
2017-04-12T11:51:54.927Z,1005.54
2017-04-12T11:52:54.951Z,1005.48
2017-04-12T11:53:54.974Z,1005.56
2017-04-12T11:54:54.998Z,1005.53
2017-04-12T11:55:55.322Z,1005.49
2017-04-12T11:56:55.047Z,1005.52
2017-04-12T11:57:55.070Z,1005.49
2017-04-12T11:58:55.094Z,1005.59
2017-04-12T11:59:55.117Z,1005.47
2017-04-12T12:00:55.141Z,1005.48
2017-04-12T12:02:55.188Z,1005.52
2017-04-12T12:03:55.211Z,1005.41
2017-04-12T12:04:55.235Z,1005.47
2017-04-12T12:05:55.260Z,1005.52
2017-04-12T12:06:55.284Z,1005.55
2017-04-12T12:07:55.306Z,1005.46
2017-04-12T12:08:55.330Z,1005.41
2017-04-12T12:09:55.353Z,1005.32
2017-04-12T12:10:55.377Z,1005.49
2017-04-12T12:11:55.401Z,1005.36
2017-04-12T12:12:55.424Z,1005.39
2017-04-12T12:13:55.449Z,1005.38
2017-04-12T12:14:55.471Z,1005.35
2017-04-12T12:15:55.496Z,1005.38
2017-04-12T12:16:55.519Z,1005.38
2017-04-12T12:18:55.567Z,1005.41
2017-04-12T12:19:55.590Z,1005.35
2017-04-12T12:20:55.614Z,1005.21
2017-04-12T12:21:55.637Z,1005.26
2017-04-12T12:22:55.660Z,1005.15
2017-04-12T12:23:55.684Z,1005.1
2017-04-12T12:24:55.707Z,1005.19
2017-04-12T12:25:55.730Z,1005.21
2017-04-12T12:26:55.756Z,1005.2
2017-04-12T12:27:55.777Z,1005.16
2017-04-12T12:28:55.802Z,1005.29
2017-04-12T12:29:55.823Z,1005.25
2017-04-12T12:30:55.847Z,1005.24
2017-04-12T12:31:55.870Z,1005.19
2017-04-12T12:32:55.928Z,1005.27
2017-04-12T12:34:55.940Z,1005.19
2017-04-12T12:35:55.965Z,1005.16
2017-04-12T12:36:56.237Z,1005.13
2017-04-12T12:37:56.010Z,1005.14
2017-04-12T12:38:56.034Z,1005.21
2017-04-12T12:39:56.056Z,1005.17
2017-04-12T12:40:56.079Z,1005.06
2017-04-12T12:41:56.104Z,1005.11
2017-04-12T12:42:56.127Z,1005.18
2017-04-12T12:43:56.150Z,1005.09
2017-04-12T12:44:56.174Z,1005.13
2017-04-12T12:45:56.199Z,1005.13
2017-04-12T12:46:56.221Z,1005.07
2017-04-12T12:47:56.245Z,1005.09
2017-04-12T12:49:56.292Z,1004.99